createdAt,value
2019-05-12T00:01:39.888Z,13.54
2019-05-12T00:06:41.556Z,13.53
2019-05-12T00:11:43.327Z,13.52
2019-05-12T00:16:45.326Z,13.50
2019-05-12T00:21:48.287Z,13.49
2019-05-12T00:26:51.879Z,13.44
2019-05-12T00:31:53.370Z,13.42
2019-05-12T00:36:54.980Z,13.40
2019-05-12T00:41:58.581Z,13.41
2019-05-12T00:46:59.903Z,13.45
2019-05-12T00:52:01.574Z,13.46
2019-05-12T00:57:03.047Z,13.46
2019-05-12T01:02:04.820Z,13.53
2019-05-12T01:07:08.533Z,13.55
2019-05-12T01:12:09.870Z,13.58
2019-05-12T01:17:11.345Z,13.61
2019-05-12T01:22:12.817Z,13.55
2019-05-12T01:27:14.306Z,13.49
2019-05-12T01:32:38.077Z,13.38
2019-05-12T01:37:39.275Z,13.34
2019-05-12T01:42:40.856Z,13.25
2019-05-12T01:47:42.326Z,13.23
2019-05-12T01:52:45.114Z,13.20
2019-05-12T01:57:48.539Z,13.15
2019-05-12T02:02:50.075Z,13.08
2019-05-12T02:07:53.537Z,12.95
2019-05-12T02:12:55.203Z,12.81
2019-05-12T02:17:58.938Z,12.72
2019-05-12T02:23:00.171Z,12.69
2019-05-12T02:28:01.854Z,12.64
2019-05-12T02:33:05.244Z,12.68
2019-05-12T02:38:06.860Z,12.78
2019-05-12T02:43:08.485Z,12.65
2019-05-12T02:48:10.075Z,12.42
2019-05-12T02:53:14.564Z,12.33
2019-05-12T02:58:17.770Z,12.34
2019-05-12T03:03:20.549Z,12.42
2019-05-12T03:08:25.515Z,12.47
2019-05-12T03:13:26.217Z,12.54
2019-05-12T03:18:27.822Z,12.51
2019-05-12T03:23:29.280Z,12.45
2019-05-12T03:28:30.751Z,12.44
2019-05-12T03:33:36.120Z,12.45
2019-05-12T03:38:36.224Z,12.52
2019-05-12T03:43:38.033Z,12.55
2019-05-12T03:48:39.511Z,12.55
2019-05-12T03:53:40.984Z,12.47
2019-05-12T03:58:45.342Z,12.49
2019-05-12T04:03:45.958Z,12.45
2019-05-12T04:08:47.555Z,12.42
2019-05-12T04:13:49.168Z,12.30
2019-05-12T04:18:50.650Z,12.25
2019-05-12T04:23:54.848Z,12.31
2019-05-12T04:28:55.511Z,12.34
2019-05-12T04:33:56.988Z,12.35
2019-05-12T04:38:58.456Z,12.42
2019-05-12T04:43:59.997Z,12.50
2019-05-12T04:49:04.974Z,12.61
2019-05-12T04:54:06.076Z,12.69
2019-05-12T04:59:08.005Z,12.76
2019-05-12T05:04:09.530Z,12.81
2019-05-12T05:09:14.208Z,12.85
2019-05-12T05:14:14.638Z,12.88
2019-05-12T05:19:16.239Z,12.89
2019-05-12T05:24:17.735Z,12.93
2019-05-12T05:29:19.363Z,13.05
2019-05-12T05:34:23.456Z,13.44
2019-05-12T05:39:24.595Z,13.73
2019-05-12T05:44:29.210Z,14.26
2019-05-12T05:49:29.618Z,14.67
2019-05-12T05:54:33.672Z,14.63
2019-05-12T05:59:36.859Z,14.65
2019-05-12T06:04:39.250Z,14.59
2019-05-12T06:09:43.281Z,14.57
2019-05-12T06:14:46.716Z,14.74
2019-05-12T06:19:48.413Z,14.86
2019-05-12T06:24:56.918Z,14.85
2019-05-12T06:30:00.863Z,14.76
2019-05-12T06:35:01.396Z,14.62
2019-05-12T06:40:00.649Z,14.58
2019-05-12T06:45:03.991Z,14.61
2019-05-12T06:50:06.417Z,14.63
2019-05-12T06:55:07.994Z,14.61
2019-05-12T07:00:10.795Z,14.59
2019-05-12T07:05:14.423Z,14.58
2019-05-12T07:10:35.580Z,14.64
2019-05-12T07:15:19.819Z,14.67
2019-05-12T07:20:23.895Z,14.74
2019-05-12T07:25:31.142Z,14.78
2019-05-12T07:30:32.653Z,14.82
2019-05-12T07:35:34.095Z,14.84
2019-05-12T07:40:37.910Z,14.79
2019-05-12T07:45:44.166Z,14.68
2019-05-12T07:50:50.167Z,14.56
2019-05-12T07:55:49.665Z,14.49
2019-05-12T08:00:53.953Z,14.46
2019-05-12T08:05:59.779Z,14.36
2019-05-12T08:10:58.120Z,14.27
2019-05-12T08:15:59.644Z,14.17
2019-05-12T08:21:03.575Z,14.11
2019-05-12T08:26:12.073Z,14.03
2019-05-12T08:31:08.189Z,13.99
2019-05-12T08:36:11.725Z,13.89
2019-05-12T08:41:14.640Z,13.96
2019-05-12T08:46:16.458Z,14.19
2019-05-12T08:51:20.082Z,14.47
2019-05-12T08:56:24.029Z,14.88
2019-05-12T09:01:29.112Z,15.19
2019-05-12T09:06:30.400Z,15.45
2019-05-12T09:11:33.582Z,15.70
2019-05-12T09:16:35.260Z,15.69
2019-05-12T09:21:37.200Z,15.83
2019-05-12T09:26:38.894Z,16.16
2019-05-12T09:31:40.378Z,16.62
2019-05-12T09:36:43.780Z,16.48
2019-05-12T09:41:50.654Z,16.33
2019-05-12T09:46:48.754Z,16.35
2019-05-12T09:51:50.247Z,16.18
2019-05-12T09:56:57.810Z,15.97
2019-05-12T10:01:55.230Z,15.92
2019-05-12T10:06:56.839Z,15.86
2019-05-12T10:12:00.554Z,15.74
2019-05-12T10:17:03.624Z,15.52
2019-05-12T10:22:05.512Z,15.36
2019-05-12T10:27:08.176Z,15.08
2019-05-12T10:32:10.484Z,14.76
2019-05-12T10:37:13.318Z,14.52
2019-05-12T10:42:15.082Z,14.28
2019-05-12T10:47:16.560Z,14.01
2019-05-12T10:52:18.038Z,13.87
2019-05-12T10:57:19.652Z,13.69
2019-05-12T11:02:26.459Z,13.52
2019-05-12T11:07:28.109Z,13.44
2019-05-12T11:12:29.204Z,13.38
2019-05-12T11:17:49.897Z,13.32
2019-05-12T11:22:51.437Z,13.21
2019-05-12T11:27:54.888Z,13.06
2019-05-12T11:32:59.483Z,13.00
2019-05-12T11:38:00.917Z,12.87
2019-05-12T11:43:04.085Z,12.77
2019-05-12T11:48:10.111Z,12.53
2019-05-12T11:53:09.615Z,12.29
2019-05-12T11:58:11.765Z,12.01
2019-05-12T12:03:17.989Z,11.83
2019-05-12T12:08:16.824Z,11.55
2019-05-12T12:13:24.448Z,11.35
2019-05-12T12:18:23.533Z,11.21
2019-05-12T12:23:25.294Z,11.00
2019-05-12T12:28:26.767Z,10.77
2019-05-12T12:33:30.934Z,10.59
2019-05-12T12:38:33.467Z,10.33
2019-05-12T12:43:35.018Z,10.19
2019-05-12T12:48:36.523Z,10.04
2019-05-12T12:53:38.004Z,9.92
2019-05-12T12:58:39.490Z,9.81
2019-05-12T13:03:43.409Z,9.66
2019-05-12T13:08:44.792Z,9.66
2019-05-12T13:13:46.304Z,9.61
2019-05-12T13:18:47.777Z,9.57
2019-05-12T13:23:51.091Z,9.52
2019-05-12T13:28:54.883Z,9.51
2019-05-12T13:33:56.597Z,9.55
2019-05-12T13:38:59.314Z,9.49
2019-05-12T13:44:00.838Z,9.43
2019-05-12T13:49:03.183Z,9.41
2019-05-12T13:54:04.879Z,9.34
2019-05-12T13:59:06.354Z,9.37
2019-05-12T14:04:07.872Z,9.35
2019-05-12T14:09:09.845Z,9.31
2019-05-12T14:14:15.190Z,9.35
2019-05-12T14:19:14.842Z,9.32
2019-05-12T14:24:16.426Z,9.33
2019-05-12T14:29:20.486Z,9.33
2019-05-12T14:34:23.501Z,9.33
2019-05-12T14:39:24.661Z,9.30
2019-05-12T14:44:26.135Z,9.23
2019-05-12T14:49:30.509Z,9.28
2019-05-12T14:54:31.647Z,9.25
2019-05-12T14:59:36.698Z,9.26
2019-05-12T15:04:36.735Z,9.27
2019-05-12T15:09:38.413Z,9.19
2019-05-12T15:14:39.994Z,9.16
2019-05-12T15:19:43.891Z,9.17
2019-05-12T15:24:49.210Z,9.19
2019-05-12T15:29:49.998Z,9.22
2019-05-12T15:34:52.099Z,9.27
2019-05-12T15:39:53.592Z,9.32
2019-05-12T15:44:55.066Z,9.32
2019-05-12T15:49:57.650Z,9.33
2019-05-12T15:54:59.173Z,9.31
2019-05-12T16:00:00.770Z,9.34
2019-05-12T16:05:06.751Z,9.31
2019-05-12T16:10:09.374Z,9.32
2019-05-12T16:15:17.074Z,9.32
2019-05-12T16:20:15.619Z,9.31
2019-05-12T16:25:20.563Z,9.31
2019-05-12T16:30:25.998Z,9.31
2019-05-12T16:35:28.481Z,9.31
2019-05-12T16:40:28.961Z,9.28
2019-05-12T16:45:30.550Z,9.25
2019-05-12T16:50:34.449Z,9.28
2019-05-12T16:55:44.910Z,9.24
2019-05-12T17:00:44.030Z,9.21
2019-05-12T17:05:42.814Z,9.15
2019-05-12T17:10:49.748Z,9.13
2019-05-12T17:15:48.752Z,9.04
2019-05-12T17:20:51.606Z,9.05
2019-05-12T17:25:53.200Z,9.01
2019-05-12T17:30:54.683Z,8.99
2019-05-12T17:35:56.193Z,8.97
2019-05-12T17:41:00.676Z,8.95
2019-05-12T17:46:04.142Z,8.95
2019-05-12T17:51:04.790Z,8.94
2019-05-12T17:56:06.367Z,8.90
2019-05-12T18:01:08.067Z,8.92
2019-05-12T18:06:09.646Z,8.89
2019-05-12T18:11:11.839Z,8.87
2019-05-12T18:16:20.399Z,8.87
2019-05-12T18:21:21.677Z,8.88
2019-05-12T18:26:24.483Z,8.83
2019-05-12T18:31:25.607Z,8.80
2019-05-12T18:36:27.075Z,8.74
2019-05-12T18:41:28.554Z,8.81
2019-05-12T18:46:30.033Z,8.80
2019-05-12T18:51:34.131Z,8.77
2019-05-12T18:56:35.209Z,8.68
2019-05-12T19:01:36.883Z,8.69
2019-05-12T19:06:38.371Z,8.62
2019-05-12T19:11:42.197Z,8.55
2019-05-12T19:16:43.784Z,8.53
2019-05-12T19:21:46.884Z,8.56
2019-05-12T19:26:48.716Z,8.59
2019-05-12T19:31:52.497Z,8.55
2019-05-12T19:36:53.982Z,8.46
2019-05-12T19:41:55.570Z,8.43
2019-05-12T19:46:57.096Z,8.37
2019-05-12T19:51:58.917Z,8.36
2019-05-12T19:57:00.433Z,8.34
2019-05-12T20:02:04.073Z,8.35
2019-05-12T20:07:05.609Z,8.33
2019-05-12T20:12:13.170Z,8.29
2019-05-12T20:17:10.707Z,8.27
2019-05-12T20:22:13.820Z,8.31
2019-05-12T20:27:21.643Z,8.33
2019-05-12T20:32:20.022Z,8.37
2019-05-12T20:37:21.509Z,8.36
2019-05-12T20:42:23.622Z,8.36
2019-05-12T20:47:25.388Z,8.37
2019-05-12T20:52:27.519Z,8.31
2019-05-12T20:57:29.041Z,8.33
2019-05-12T21:02:30.527Z,8.26
2019-05-12T21:07:33.831Z,8.23
2019-05-12T21:12:39.973Z,8.22
2019-05-12T21:17:43.469Z,8.22
2019-05-12T21:22:43.750Z,8.19
2019-05-12T21:27:47.763Z,8.22
2019-05-12T21:32:56.463Z,8.20
2019-05-12T21:37:53.783Z,8.18
2019-05-12T21:42:55.445Z,8.15
2019-05-12T21:47:57.227Z,8.17
2019-05-12T21:52:59.988Z,8.16
2019-05-12T21:58:10.622Z,8.17
2019-05-12T22:03:08.091Z,8.17
2019-05-12T22:08:17.706Z,8.15
2019-05-12T22:13:17.946Z,8.13
2019-05-12T22:18:18.542Z,8.07
2019-05-12T22:23:20.323Z,8.04
2019-05-12T22:28:23.885Z,8.04
2019-05-12T22:33:25.218Z,8.04
2019-05-12T22:38:26.800Z,8.03
2019-05-12T22:43:31.453Z,8.02
2019-05-12T22:48:37.267Z,8.02
2019-05-12T22:53:35.092Z,8.03
2019-05-12T22:58:36.558Z,8.05
2019-05-12T23:03:45.337Z,8.08
2019-05-12T23:08:47.090Z,8.04
2019-05-12T23:13:44.986Z,8.05
2019-05-12T23:18:46.564Z,8.03
2019-05-12T23:23:49.850Z,8.05
2019-05-12T23:28:53.473Z,8.07
2019-05-12T23:33:54.866Z,8.05
2019-05-12T23:39:00.526Z,8.09
2019-05-12T23:43:59.724Z,8.07
2019-05-12T23:49:03.658Z,8.10
2019-05-12T23:54:04.590Z,8.09
2019-05-12T23:59:06.130Z,8.08
